sensor_id;sensor_type;location;lat;lon;timestamp;noise_LAeq;noise_LA_min;noise_LA_max;noise_LA01;noise_LA95
70077;Laerm;57448;51.490;5.436;2022-12-24T00:01:09;45.64;39.02;59.10;;
70077;Laerm;57448;51.490;5.436;2022-12-24T00:04:00;45.74;41.05;52.27;;
70077;Laerm;57448;51.490;5.436;2022-12-24T00:06:51;44.48;40.38;55.91;;
70077;Laerm;57448;51.490;5.436;2022-12-24T00:09:41;44.77;40.53;52.93;;
70077;Laerm;57448;51.490;5.436;2022-12-24T00:12:33;44.78;39.75;57.49;;
70077;Laerm;57448;51.490;5.436;2022-12-24T00:15:24;43.68;38.82;54.14;;
70077;Laerm;57448;51.490;5.436;2022-12-24T00:18:15;43.38;38.95;55.61;;
70077;Laerm;57448;51.490;5.436;2022-12-24T00:21:05;44.54;38.91;56.47;;
70077;Laerm;57448;51.490;5.436;2022-12-24T00:23:56;44.65;39.74;50.71;;
70077;Laerm;57448;51.490;5.436;2022-12-24T00:26:47;44.09;39.05;50.82;;
70077;Laerm;57448;51.490;5.436;2022-12-24T00:29:39;43.19;38.33;57.82;;
70077;Laerm;57448;51.490;5.436;2022-12-24T00:32:29;42.80;36.63;48.65;;
70077;Laerm;57448;51.490;5.436;2022-12-24T00:35:20;43.93;37.16;63.51;;
70077;Laerm;57448;51.490;5.436;2022-12-24T00:38:11;44.16;38.54;55.05;;
70077;Laerm;57448;51.490;5.436;2022-12-24T00:41:02;44.15;39.10;52.60;;
70077;Laerm;57448;51.490;5.436;2022-12-24T00:43:53;44.07;39.12;51.14;;
70077;Laerm;57448;51.490;5.436;2022-12-24T00:46:46;43.14;38.97;52.07;;
70077;Laerm;57448;51.490;5.436;2022-12-24T00:49:36;43.74;39.42;51.13;;
70077;Laerm;57448;51.490;5.436;2022-12-24T00:52:27;43.29;38.10;53.27;;
70077;Laerm;57448;51.490;5.436;2022-12-24T00:55:18;43.91;38.33;53.28;;
70077;Laerm;57448;51.490;5.436;2022-12-24T00:58:08;43.56;38.69;56.32;;
70077;Laerm;57448;51.490;5.436;2022-12-24T01:00:59;44.28;39.36;58.40;;
70077;Laerm;57448;51.490;5.436;2022-12-24T01:03:51;42.98;38.36;51.60;;
70077;Laerm;57448;51.490;5.436;2022-12-24T01:07:02;43.38;37.88;54.99;;
70077;Laerm;57448;51.490;5.436;2022-12-24T01:09:51;43.52;38.07;53.04;;
70077;Laerm;57448;51.490;5.436;2022-12-24T01:12:42;43.97;38.85;52.86;;
70077;Laerm;57448;51.490;5.436;2022-12-24T01:15:35;47.21;39.54;70.34;;
70077;Laerm;57448;51.490;5.436;2022-12-24T01:18:26;43.20;38.35;49.25;;
70077;Laerm;57448;51.490;5.436;2022-12-24T01:21:18;43.64;37.89;51.70;;
70077;Laerm;57448;51.490;5.436;2022-12-24T01:24:09;43.29;37.97;52.99;;
70077;Laerm;57448;51.490;5.436;2022-12-24T01:27:03;42.02;36.51;51.19;;
70077;Laerm;57448;51.490;5.436;2022-12-24T01:29:53;41.93;37.18;55.74;;
70077;Laerm;57448;51.490;5.436;2022-12-24T01:32:44;41.24;35.56;47.53;;
70077;Laerm;57448;51.490;5.436;2022-12-24T01:35:37;41.77;36.87;52.40;;
70077;Laerm;57448;51.490;5.436;2022-12-24T01:38:29;40.51;35.30;48.79;;
70077;Laerm;57448;51.490;5.436;2022-12-24T01:41:21;40.91;36.35;46.62;;
70077;Laerm;57448;51.490;5.436;2022-12-24T01:44:30;40.28;35.16;50.20;;
70077;Laerm;57448;51.490;5.436;2022-12-24T01:47:23;41.33;35.86;50.76;;
70077;Laerm;57448;51.490;5.436;2022-12-24T01:50:15;40.62;35.67;49.22;;
70077;Laerm;57448;51.490;5.436;2022-12-24T01:53:06;41.30;35.13;58.94;;
70077;Laerm;57448;51.490;5.436;2022-12-24T01:55:59;43.64;36.75;54.15;;
70077;Laerm;57448;51.490;5.436;2022-12-24T01:58:51;41.02;36.01;47.59;;
70077;Laerm;57448;51.490;5.436;2022-12-24T02:01:44;40.82;36.12;51.12;;
70077;Laerm;57448;51.490;5.436;2022-12-24T02:04:36;42.25;37.09;51.68;;
70077;Laerm;57448;51.490;5.436;2022-12-24T02:07:27;40.59;34.82;51.22;;
70077;Laerm;57448;51.490;5.436;2022-12-24T02:10:18;41.65;37.44;52.19;;
70077;Laerm;57448;51.490;5.436;2022-12-24T02:13:10;39.99;34.18;48.49;;
70077;Laerm;57448;51.490;5.436;2022-12-24T02:16:04;41.73;36.82;54.73;;
70077;Laerm;57448;51.490;5.436;2022-12-24T02:18:59;40.72;35.26;49.82;;
70077;Laerm;57448;51.490;5.436;2022-12-24T02:21:56;42.54;37.24;51.90;;
70077;Laerm;57448;51.490;5.436;2022-12-24T02:25:02;40.73;35.96;54.84;;
70077;Laerm;57448;51.490;5.436;2022-12-24T02:27:59;41.40;35.75;52.70;;
70077;Laerm;57448;51.490;5.436;2022-12-24T02:30:55;41.48;36.41;53.53;;
70077;Laerm;57448;51.490;5.436;2022-12-24T02:33:49;41.86;36.55;52.58;;
70077;Laerm;57448;51.490;5.436;2022-12-24T02:36:45;41.83;36.87;48.56;;
70077;Laerm;57448;51.490;5.436;2022-12-24T02:39:39;41.75;36.99;53.42;;
70077;Laerm;57448;51.490;5.436;2022-12-24T02:42:34;41.79;36.51;48.69;;
70077;Laerm;57448;51.490;5.436;2022-12-24T02:45:27;41.19;36.28;49.96;;
70077;Laerm;57448;51.490;5.436;2022-12-24T02:48:20;41.23;36.63;51.81;;
70077;Laerm;57448;51.490;5.436;2022-12-24T02:51:12;41.50;35.25;50.26;;
70077;Laerm;57448;51.490;5.436;2022-12-24T02:54:03;42.51;37.05;56.42;;
70077;Laerm;57448;51.490;5.436;2022-12-24T02:56:57;40.81;34.82;56.26;;
70077;Laerm;57448;51.490;5.436;2022-12-24T02:59:58;41.35;37.35;51.38;;
70077;Laerm;57448;51.490;5.436;2022-12-24T03:02:53;41.53;36.79;53.76;;
70077;Laerm;57448;51.490;5.436;2022-12-24T03:05:50;42.36;36.32;50.75;;
70077;Laerm;57448;51.490;5.436;2022-12-24T03:08:43;40.91;37.06;49.13;;
70077;Laerm;57448;51.490;5.436;2022-12-24T03:11:34;42.44;38.36;53.36;;
70077;Laerm;57448;51.490;5.436;2022-12-24T03:14:26;41.90;37.07;51.57;;
70077;Laerm;57448;51.490;5.436;2022-12-24T03:17:17;42.25;36.95;56.14;;
70077;Laerm;57448;51.490;5.436;2022-12-24T03:20:09;41.24;36.14;50.31;;
70077;Laerm;57448;51.490;5.436;2022-12-24T03:23:02;41.33;37.24;50.77;;
70077;Laerm;57448;51.490;5.436;2022-12-24T03:25:53;41.39;37.17;54.70;;
70077;Laerm;57448;51.490;5.436;2022-12-24T03:28:44;40.99;36.31;51.56;;
70077;Laerm;57448;51.490;5.436;2022-12-24T03:31:39;41.15;36.51;51.73;;
70077;Laerm;57448;51.490;5.436;2022-12-24T03:34:29;40.79;36.54;47.95;;
70077;Laerm;57448;51.490;5.436;2022-12-24T03:37:20;41.51;36.95;50.56;;
70077;Laerm;57448;51.490;5.436;2022-12-24T03:40:12;42.57;37.00;55.12;;
70077;Laerm;57448;51.490;5.436;2022-12-24T03:43:03;41.04;37.31;48.30;;
70077;Laerm;57448;51.490;5.436;2022-12-24T03:45:54;41.70;37.21;53.00;;
70077;Laerm;57448;51.490;5.436;2022-12-24T03:48:44;42.02;37.54;56.42;;
70077;Laerm;57448;51.490;5.436;2022-12-24T03:51:35;42.81;37.88;56.38;;
70077;Laerm;57448;51.490;5.436;2022-12-24T03:54:26;42.87;38.65;55.98;;
70077;Laerm;57448;51.490;5.436;2022-12-24T03:57:18;42.38;37.36;49.75;;
70077;Laerm;57448;51.490;5.436;2022-12-24T04:00:10;42.01;38.34;50.53;;
70077;Laerm;57448;51.490;5.436;2022-12-24T04:03:00;41.79;37.81;50.18;;
70077;Laerm;57448;51.490;5.436;2022-12-24T04:05:58;42.06;37.94;48.26;;
70077;Laerm;57448;51.490;5.436;2022-12-24T04:08:49;43.53;38.89;52.80;;
70077;Laerm;57448;51.490;5.436;2022-12-24T04:11:39;43.53;38.71;52.43;;
70077;Laerm;57448;51.490;5.436;2022-12-24T04:14:32;43.08;38.25;47.93;;
70077;Laerm;57448;51.490;5.436;2022-12-24T04:17:22;42.93;38.11;51.41;;
70077;Laerm;57448;51.490;5.436;2022-12-24T04:20:13;43.75;39.25;50.37;;
70077;Laerm;57448;51.490;5.436;2022-12-24T04:23:03;45.26;39.54;64.06;;
70077;Laerm;57448;51.490;5.436;2022-12-24T04:25:54;43.49;38.65;51.01;;
70077;Laerm;57448;51.490;5.436;2022-12-24T04:28:45;48.49;40.93;62.45;;
70077;Laerm;57448;51.490;5.436;2022-12-24T04:31:37;43.31;38.02;56.58;;
70077;Laerm;57448;51.490;5.436;2022-12-24T04:34:27;43.12;39.06;51.22;;
70077;Laerm;57448;51.490;5.436;2022-12-24T04:37:18;42.93;37.92;53.90;;
70077;Laerm;57448;51.490;5.436;2022-12-24T04:40:09;44.07;39.46;57.35;;
70077;Laerm;57448;51.490;5.436;2022-12-24T04:43:00;43.16;38.11;50.30;;
70077;Laerm;57448;51.490;5.436;2022-12-24T04:45:50;44.02;39.63;52.50;;
70077;Laerm;57448;51.490;5.436;2022-12-24T04:48:43;42.66;38.47;55.10;;
70077;Laerm;57448;51.490;5.436;2022-12-24T04:51:33;43.04;38.84;50.25;;
70077;Laerm;57448;51.490;5.436;2022-12-24T04:54:24;43.06;38.42;53.39;;
70077;Laerm;57448;51.490;5.436;2022-12-24T04:57:15;42.63;38.19;49.47;;
70077;Laerm;57448;51.490;5.436;2022-12-24T05:00:06;43.47;38.79;55.55;;
70077;Laerm;57448;51.490;5.436;2022-12-24T05:02:57;42.73;38.18;51.12;;
70077;Laerm;57448;51.490;5.436;2022-12-24T05:05:49;43.71;39.31;55.96;;
70077;Laerm;57448;51.490;5.436;2022-12-24T05:08:39;44.05;39.55;53.27;;
70077;Laerm;57448;51.490;5.436;2022-12-24T05:11:30;42.99;39.22;49.20;;
70077;Laerm;57448;51.490;5.436;2022-12-24T05:14:21;44.48;38.05;54.56;;
70077;Laerm;57448;51.490;5.436;2022-12-24T05:17:11;43.89;40.42;51.04;;
70077;Laerm;57448;51.490;5.436;2022-12-24T05:20:02;43.95;39.45;53.53;;
70077;Laerm;57448;51.490;5.436;2022-12-24T05:22:55;45.66;41.56;53.81;;
70077;Laerm;57448;51.490;5.436;2022-12-24T05:26:03;46.12;41.94;57.99;;
70077;Laerm;57448;51.490;5.436;2022-12-24T05:29:12;45.16;39.90;52.48;;
70077;Laerm;57448;51.490;5.436;2022-12-24T05:32:03;44.09;39.04;59.68;;
70077;Laerm;57448;51.490;5.436;2022-12-24T05:34:54;44.71;40.09;54.01;;
70077;Laerm;57448;51.490;5.436;2022-12-24T05:37:44;44.85;39.86;53.51;;
70077;Laerm;57448;51.490;5.436;2022-12-24T05:40:37;47.43;39.14;60.36;;
70077;Laerm;57448;51.490;5.436;2022-12-24T05:43:28;44.78;38.67;53.33;;
70077;Laerm;57448;51.490;5.436;2022-12-24T05:46:19;44.23;40.32;49.71;;
70077;Laerm;57448;51.490;5.436;2022-12-24T05:49:10;45.35;39.85;59.81;;
70077;Laerm;57448;51.490;5.436;2022-12-24T05:52:01;45.77;40.81;60.05;;
70077;Laerm;57448;51.490;5.436;2022-12-24T05:54:51;43.53;38.83;50.03;;
70077;Laerm;57448;51.490;5.436;2022-12-24T05:57:43;44.49;39.83;49.29;;
70077;Laerm;57448;51.490;5.436;2022-12-24T06:00:34;43.84;40.22;49.97;;
70077;Laerm;57448;51.490;5.436;2022-12-24T06:03:25;44.45;39.78;52.19;;
70077;Laerm;57448;51.490;5.436;2022-12-24T06:06:16;44.92;39.62;55.52;;
70077;Laerm;57448;51.490;5.436;2022-12-24T06:09:07;47.95;40.50;62.76;;
70077;Laerm;57448;51.490;5.436;2022-12-24T06:11:58;45.06;40.87;51.76;;
70077;Laerm;57448;51.490;5.436;2022-12-24T06:14:50;44.68;40.12;49.83;;
70077;Laerm;57448;51.490;5.436;2022-12-24T06:17:40;45.44;41.80;56.60;;
70077;Laerm;57448;51.490;5.436;2022-12-24T06:20:31;45.23;41.03;51.63;;
70077;Laerm;57448;51.490;5.436;2022-12-24T06:23:22;44.63;40.49;53.96;;
70077;Laerm;57448;51.490;5.436;2022-12-24T06:26:14;45.31;40.82;56.95;;
70077;Laerm;57448;51.490;5.436;2022-12-24T06:29:04;45.86;39.90;54.07;;
70077;Laerm;57448;51.490;5.436;2022-12-24T06:31:56;45.57;41.83;51.12;;
70077;Laerm;57448;51.490;5.436;2022-12-24T06:34:47;46.47;42.07;54.74;;
70077;Laerm;57448;51.490;5.436;2022-12-24T06:37:38;46.41;42.03;54.18;;
70077;Laerm;57448;51.490;5.436;2022-12-24T06:40:28;47.24;42.24;55.27;;
70077;Laerm;57448;51.490;5.436;2022-12-24T06:43:19;46.17;40.70;57.35;;
70077;Laerm;57448;51.490;5.436;2022-12-24T06:46:10;46.85;42.67;55.16;;
70077;Laerm;57448;51.490;5.436;2022-12-24T06:49:02;46.90;42.50;51.65;;
70077;Laerm;57448;51.490;5.436;2022-12-24T06:51:53;46.69;42.08;52.18;;
70077;Laerm;57448;51.490;5.436;2022-12-24T06:54:43;46.78;42.44;54.83;;
70077;Laerm;57448;51.490;5.436;2022-12-24T06:57:34;46.73;42.14;56.34;;
70077;Laerm;57448;51.490;5.436;2022-12-24T07:00:25;54.95;42.29;75.88;;
70077;Laerm;57448;51.490;5.436;2022-12-24T07:03:15;48.62;40.18;66.43;;
70077;Laerm;57448;51.490;5.436;2022-12-24T07:06:07;47.77;41.93;62.27;;
70077;Laerm;57448;51.490;5.436;2022-12-24T07:09:00;48.10;41.71;68.09;;
70077;Laerm;57448;51.490;5.436;2022-12-24T07:11:51;47.56;42.52;68.19;;
70077;Laerm;57448;51.490;5.436;2022-12-24T07:14:41;46.99;42.31;62.08;;
70077;Laerm;57448;51.490;5.436;2022-12-24T07:17:32;53.12;43.22;71.47;;
70077;Laerm;57448;51.490;5.436;2022-12-24T07:20:23;48.46;43.60;61.99;;
70077;Laerm;57448;51.490;5.436;2022-12-24T07:23:15;47.54;43.01;58.89;;
70077;Laerm;57448;51.490;5.436;2022-12-24T07:26:05;46.81;42.63;60.90;;
70077;Laerm;57448;51.490;5.436;2022-12-24T07:28:56;53.25;43.40;66.83;;
70077;Laerm;57448;51.490;5.436;2022-12-24T07:31:47;47.29;43.04;58.20;;
70077;Laerm;57448;51.490;5.436;2022-12-24T07:34:38;47.37;43.28;54.55;;
70077;Laerm;57448;51.490;5.436;2022-12-24T07:37:28;52.41;44.07;67.18;;
70077;Laerm;57448;51.490;5.436;2022-12-24T07:40:20;47.68;42.41;59.61;;
70077;Laerm;57448;51.490;5.436;2022-12-24T07:43:11;52.86;44.29;66.21;;
70077;Laerm;57448;51.490;5.436;2022-12-24T07:46:02;48.30;44.05;60.37;;
70077;Laerm;57448;51.490;5.436;2022-12-24T07:48:52;50.33;43.69;65.65;;
70077;Laerm;57448;51.490;5.436;2022-12-24T07:51:43;55.04;44.17;70.48;;
70077;Laerm;57448;51.490;5.436;2022-12-24T07:54:34;50.79;44.61;60.22;;
70077;Laerm;57448;51.490;5.436;2022-12-24T07:57:26;48.75;43.70;60.93;;
70077;Laerm;57448;51.490;5.436;2022-12-24T08:00:17;49.71;44.27;64.96;;
70077;Laerm;57448;51.490;5.436;2022-12-24T08:03:08;49.98;44.02;65.09;;
70077;Laerm;57448;51.490;5.436;2022-12-24T08:05:59;49.15;44.70;60.67;;
70077;Laerm;57448;51.490;5.436;2022-12-24T08:08:50;52.18;44.38;66.14;;
70077;Laerm;57448;51.490;5.436;2022-12-24T08:11:41;51.87;43.53;66.77;;
70077;Laerm;57448;51.490;5.436;2022-12-24T08:14:33;48.48;44.77;54.62;;
70077;Laerm;57448;51.490;5.436;2022-12-24T08:17:23;48.48;44.33;57.32;;
70077;Laerm;57448;51.490;5.436;2022-12-24T08:20:14;49.67;45.59;63.38;;
70077;Laerm;57448;51.490;5.436;2022-12-24T08:23:05;49.42;44.88;59.76;;
70077;Laerm;57448;51.490;5.436;2022-12-24T08:25:56;49.04;45.26;60.74;;
70077;Laerm;57448;51.490;5.436;2022-12-24T08:28:46;49.75;45.46;55.86;;
70077;Laerm;57448;51.490;5.436;2022-12-24T08:31:38;53.45;46.15;67.51;;
70077;Laerm;57448;51.490;5.436;2022-12-24T08:34:29;49.93;44.92;64.62;;
70077;Laerm;57448;51.490;5.436;2022-12-24T08:37:20;49.05;45.95;55.41;;
70077;Laerm;57448;51.490;5.436;2022-12-24T08:40:11;50.66;46.18;67.09;;
70077;Laerm;57448;51.490;5.436;2022-12-24T08:43:01;51.78;45.19;66.52;;
70077;Laerm;57448;51.490;5.436;2022-12-24T08:45:52;48.81;44.34;60.50;;
70077;Laerm;57448;51.490;5.436;2022-12-24T08:48:44;48.48;44.88;54.40;;
70077;Laerm;57448;51.490;5.436;2022-12-24T08:51:35;48.39;45.19;55.39;;
70077;Laerm;57448;51.490;5.436;2022-12-24T08:54:25;48.75;43.90;62.28;;
70077;Laerm;57448;51.490;5.436;2022-12-24T08:57:16;54.37;44.58;68.79;;
70077;Laerm;57448;51.490;5.436;2022-12-24T09:00:10;48.27;44.30;57.25;;
70077;Laerm;57448;51.490;5.436;2022-12-24T09:03:01;50.16;44.50;65.52;;
70077;Laerm;57448;51.490;5.436;2022-12-24T09:05:53;56.63;45.31;69.39;;
70077;Laerm;57448;51.490;5.436;2022-12-24T09:08:44;48.59;44.63;59.61;;
70077;Laerm;57448;51.490;5.436;2022-12-24T09:11:34;49.56;44.50;64.32;;
70077;Laerm;57448;51.490;5.436;2022-12-24T09:14:25;48.54;43.94;65.25;;
70077;Laerm;57448;51.490;5.436;2022-12-24T09:17:16;55.37;45.21;70.39;;
70077;Laerm;57448;51.490;5.436;2022-12-24T09:20:07;47.98;44.54;64.01;;
70077;Laerm;57448;51.490;5.436;2022-12-24T09:22:59;50.13;44.36;65.09;;
70077;Laerm;57448;51.490;5.436;2022-12-24T09:25:49;48.09;43.30;55.43;;
70077;Laerm;57448;51.490;5.436;2022-12-24T09:28:40;50.37;43.90;66.34;;
70077;Laerm;57448;51.490;5.436;2022-12-24T09:31:31;49.84;45.55;65.66;;
70077;Laerm;57448;51.490;5.436;2022-12-24T09:34:22;48.63;44.56;61.46;;
70077;Laerm;57448;51.490;5.436;2022-12-24T09:37:12;48.63;44.08;61.24;;
70077;Laerm;57448;51.490;5.436;2022-12-24T09:40:05;48.70;43.80;61.31;;
70077;Laerm;57448;51.490;5.436;2022-12-24T09:42:56;53.38;44.85;68.65;;
70077;Laerm;57448;51.490;5.436;2022-12-24T09:45:49;47.81;44.20;58.46;;
70077;Laerm;57448;51.490;5.436;2022-12-24T09:48:42;48.90;44.74;62.00;;
70077;Laerm;57448;51.490;5.436;2022-12-24T09:51:35;48.79;44.92;56.48;;
70077;Laerm;57448;51.490;5.436;2022-12-24T09:54:29;49.90;44.87;63.18;;
70077;Laerm;57448;51.490;5.436;2022-12-24T09:57:26;48.65;44.95;55.28;;
70077;Laerm;57448;51.490;5.436;2022-12-24T10:00:18;48.25;44.98;55.07;;
70077;Laerm;57448;51.490;5.436;2022-12-24T10:03:13;48.00;44.78;58.68;;
70077;Laerm;57448;51.490;5.436;2022-12-24T10:06:05;48.18;44.09;61.31;;
70077;Laerm;57448;51.490;5.436;2022-12-24T10:09:01;49.23;45.39;61.45;;
70077;Laerm;57448;51.490;5.436;2022-12-24T10:11:55;54.28;44.97;69.26;;
70077;Laerm;57448;51.490;5.436;2022-12-24T10:14:55;49.06;45.12;61.48;;
70077;Laerm;57448;51.490;5.436;2022-12-24T10:17:51;53.45;44.60;70.05;;
70077;Laerm;57448;51.490;5.436;2022-12-24T10:20:46;48.12;44.19;55.43;;
70077;Laerm;57448;51.490;5.436;2022-12-24T10:23:38;48.49;44.52;55.31;;
70077;Laerm;57448;51.490;5.436;2022-12-24T10:26:32;48.49;44.16;69.86;;
70077;Laerm;57448;51.490;5.436;2022-12-24T10:29:26;46.87;42.39;62.93;;
70077;Laerm;57448;51.490;5.436;2022-12-24T10:32:21;47.16;43.11;61.08;;
70077;Laerm;57448;51.490;5.436;2022-12-24T10:35:16;46.58;42.15;59.25;;
70077;Laerm;57448;51.490;5.436;2022-12-24T10:38:08;47.80;43.09;64.32;;
70077;Laerm;57448;51.490;5.436;2022-12-24T10:40:59;47.32;43.92;62.05;;
70077;Laerm;57448;51.490;5.436;2022-12-24T10:43:50;47.52;43.48;60.03;;
70077;Laerm;57448;51.490;5.436;2022-12-24T10:46:42;47.72;42.51;74.26;;
70077;Laerm;57448;51.490;5.436;2022-12-24T10:49:36;46.79;42.95;57.66;;
70077;Laerm;57448;51.490;5.436;2022-12-24T10:52:30;46.16;42.85;62.97;;
70077;Laerm;57448;51.490;5.436;2022-12-24T10:55:23;45.97;42.98;56.00;;
70077;Laerm;57448;51.490;5.436;2022-12-24T10:58:15;45.87;42.57;56.71;;
70077;Laerm;57448;51.490;5.436;2022-12-24T11:01:06;46.79;43.00;64.61;;
70077;Laerm;57448;51.490;5.436;2022-12-24T11:03:58;47.19;42.74;60.42;;
70077;Laerm;57448;51.490;5.436;2022-12-24T11:06:55;54.41;42.86;71.77;;
70077;Laerm;57448;51.490;5.436;2022-12-24T11:09:53;53.16;41.47;68.83;;
70077;Laerm;57448;51.490;5.436;2022-12-24T11:12:45;46.76;43.40;55.40;;
70077;Laerm;57448;51.490;5.436;2022-12-24T11:15:36;53.65;44.25;69.26;;
70077;Laerm;57448;51.490;5.436;2022-12-24T11:18:27;47.95;44.03;58.76;;
70077;Laerm;57448;51.490;5.436;2022-12-24T11:21:19;47.50;43.15;57.13;;
70077;Laerm;57448;51.490;5.436;2022-12-24T11:24:18;47.54;43.88;54.51;;
70077;Laerm;57448;51.490;5.436;2022-12-24T11:27:23;47.39;43.53;60.55;;
70077;Laerm;57448;51.490;5.436;2022-12-24T11:33:26;48.04;43.64;57.83;;
70077;Laerm;57448;51.490;5.436;2022-12-24T11:36:18;49.22;43.40;61.69;;
70077;Laerm;57448;51.490;5.436;2022-12-24T11:39:14;49.99;43.61;66.90;;
70077;Laerm;57448;51.490;5.436;2022-12-24T11:42:16;51.55;43.87;66.99;;
70077;Laerm;57448;51.490;5.436;2022-12-24T11:45:16;49.08;44.96;56.35;;
70077;Laerm;57448;51.490;5.436;2022-12-24T11:48:21;49.12;45.09;59.90;;
70077;Laerm;57448;51.490;5.436;2022-12-24T11:51:21;48.04;44.63;53.23;;
70077;Laerm;57448;51.490;5.436;2022-12-24T11:54:14;52.61;43.55;67.80;;
70077;Laerm;57448;51.490;5.436;2022-12-24T11:57:06;47.63;42.70;63.35;;
70077;Laerm;57448;51.490;5.436;2022-12-24T12:00:00;49.11;42.91;70.91;;
70077;Laerm;57448;51.490;5.436;2022-12-24T12:02:51;47.89;43.69;60.15;;
70077;Laerm;57448;51.490;5.436;2022-12-24T12:05:44;48.08;44.03;62.99;;
70077;Laerm;57448;51.490;5.436;2022-12-24T12:08:35;49.64;44.55;59.59;;
70077;Laerm;57448;51.490;5.436;2022-12-24T12:11:27;48.53;44.38;58.07;;
70077;Laerm;57448;51.490;5.436;2022-12-24T12:14:19;54.36;44.83;70.10;;
70077;Laerm;57448;51.490;5.436;2022-12-24T12:17:15;47.70;43.41;53.48;;
70077;Laerm;57448;51.490;5.436;2022-12-24T12:20:09;47.78;43.67;53.13;;
70077;Laerm;57448;51.490;5.436;2022-12-24T12:23:04;48.05;43.99;61.48;;
70077;Laerm;57448;51.490;5.436;2022-12-24T12:26:03;47.56;43.39;53.87;;
70077;Laerm;57448;51.490;5.436;2022-12-24T12:28:56;48.52;44.85;56.26;;
70077;Laerm;57448;51.490;5.436;2022-12-24T12:31:49;48.56;44.86;54.78;;
70077;Laerm;57448;51.490;5.436;2022-12-24T12:34:49;55.17;45.09;69.22;;
70077;Laerm;57448;51.490;5.436;2022-12-24T12:37:46;51.27;44.77;64.57;;
70077;Laerm;57448;51.490;5.436;2022-12-24T12:40:52;52.28;43.28;66.56;;
70077;Laerm;57448;51.490;5.436;2022-12-24T12:46:58;51.31;44.28;63.74;;
70077;Laerm;57448;51.490;5.436;2022-12-24T12:49:57;49.73;45.08;63.92;;
70077;Laerm;57448;51.490;5.436;2022-12-24T12:52:55;48.02;43.73;53.37;;
70077;Laerm;57448;51.490;5.436;2022-12-24T12:55:48;48.11;43.63;55.41;;
70077;Laerm;57448;51.490;5.436;2022-12-24T12:58:42;51.81;44.12;64.54;;
70077;Laerm;57448;51.490;5.436;2022-12-24T13:01:39;48.05;44.45;55.74;;
70077;Laerm;57448;51.490;5.436;2022-12-24T13:08:06;48.71;45.07;53.36;;
70077;Laerm;57448;51.490;5.436;2022-12-24T13:11:02;53.82;45.65;69.14;;
70077;Laerm;57448;51.490;5.436;2022-12-24T13:14:08;49.65;45.79;66.04;;
70077;Laerm;57448;51.490;5.436;2022-12-24T13:17:09;49.25;44.59;58.42;;
70077;Laerm;57448;51.490;5.436;2022-12-24T13:23:11;48.93;44.77;56.05;;
70077;Laerm;57448;51.490;5.436;2022-12-24T13:26:08;48.24;44.11;54.68;;
70077;Laerm;57448;51.490;5.436;2022-12-24T13:35:25;47.50;44.01;57.14;;
70077;Laerm;57448;51.490;5.436;2022-12-24T13:38:33;52.84;42.82;76.65;;
70077;Laerm;57448;51.490;5.436;2022-12-24T13:41:37;49.89;43.38;64.99;;
70077;Laerm;57448;51.490;5.436;2022-12-24T13:44:29;51.54;43.58;67.97;;
70077;Laerm;57448;51.490;5.436;2022-12-24T13:47:22;47.22;44.21;52.30;;
70077;Laerm;57448;51.490;5.436;2022-12-24T13:50:20;49.37;44.38;69.69;;
70077;Laerm;57448;51.490;5.436;2022-12-24T13:53:18;47.66;43.13;54.88;;
70077;Laerm;57448;51.490;5.436;2022-12-24T13:56:18;46.71;42.67;58.45;;
70077;Laerm;57448;51.490;5.436;2022-12-24T13:59:17;46.51;42.82;61.90;;
70077;Laerm;57448;51.490;5.436;2022-12-24T14:02:16;46.34;42.57;59.64;;
70077;Laerm;57448;51.490;5.436;2022-12-24T14:05:14;47.67;41.74;68.88;;
70077;Laerm;57448;51.490;5.436;2022-12-24T14:08:07;46.05;42.05;53.84;;
70077;Laerm;57448;51.490;5.436;2022-12-24T14:11:04;46.78;43.02;60.58;;
70077;Laerm;57448;51.490;5.436;2022-12-24T14:17:07;52.85;42.97;70.10;;
70077;Laerm;57448;51.490;5.436;2022-12-24T14:20:04;47.32;43.88;53.57;;
70077;Laerm;57448;51.490;5.436;2022-12-24T14:22:58;47.79;44.26;61.43;;
70077;Laerm;57448;51.490;5.436;2022-12-24T14:25:49;52.95;43.88;69.03;;
70077;Laerm;57448;51.490;5.436;2022-12-24T14:28:40;48.13;42.65;62.48;;
70077;Laerm;57448;51.490;5.436;2022-12-24T14:31:32;45.96;42.84;56.65;;
70077;Laerm;57448;51.490;5.436;2022-12-24T14:34:24;46.10;43.17;52.19;;
70077;Laerm;57448;51.490;5.436;2022-12-24T14:37:15;46.38;42.43;54.52;;
70077;Laerm;57448;51.490;5.436;2022-12-24T14:40:06;52.98;43.37;68.69;;
70077;Laerm;57448;51.490;5.436;2022-12-24T14:43:00;46.07;42.61;51.65;;
70077;Laerm;57448;51.490;5.436;2022-12-24T14:45:56;46.35;43.03;55.58;;
70077;Laerm;57448;51.490;5.436;2022-12-24T14:48:51;52.53;43.34;67.93;;
70077;Laerm;57448;51.490;5.436;2022-12-24T14:51:45;47.23;42.31;61.47;;
70077;Laerm;57448;51.490;5.436;2022-12-24T14:54:40;48.64;42.33;73.83;;
70077;Laerm;57448;51.490;5.436;2022-12-24T14:57:31;46.23;41.39;59.44;;
70077;Laerm;57448;51.490;5.436;2022-12-24T15:00:22;46.46;41.60;62.00;;
70077;Laerm;57448;51.490;5.436;2022-12-24T15:03:16;45.90;41.51;58.40;;
70077;Laerm;57448;51.490;5.436;2022-12-24T15:06:07;52.87;41.44;66.57;;
70077;Laerm;57448;51.490;5.436;2022-12-24T15:09:00;51.86;41.51;65.72;;
70077;Laerm;57448;51.490;5.436;2022-12-24T15:11:51;50.38;42.42;67.06;;
70077;Laerm;57448;51.490;5.436;2022-12-24T15:14:43;46.86;43.10;58.83;;
70077;Laerm;57448;51.490;5.436;2022-12-24T15:17:35;51.82;42.60;64.55;;
70077;Laerm;57448;51.490;5.436;2022-12-24T15:20:26;45.75;42.48;61.96;;
70077;Laerm;57448;51.490;5.436;2022-12-24T15:23:18;45.48;42.02;59.53;;
70077;Laerm;57448;51.490;5.436;2022-12-24T15:26:19;53.47;42.35;72.93;;
70077;Laerm;57448;51.490;5.436;2022-12-24T15:29:12;48.33;42.30;71.40;;
70077;Laerm;57448;51.490;5.436;2022-12-24T15:32:04;45.84;41.65;59.50;;
70077;Laerm;57448;51.490;5.436;2022-12-24T15:34:55;46.04;42.78;54.23;;
70077;Laerm;57448;51.490;5.436;2022-12-24T15:37:46;45.71;42.35;51.18;;
70077;Laerm;57448;51.490;5.436;2022-12-24T15:40:36;46.16;43.16;50.95;;
70077;Laerm;57448;51.490;5.436;2022-12-24T15:43:28;51.11;41.78;65.83;;
70077;Laerm;57448;51.490;5.436;2022-12-24T15:46:20;46.39;42.35;64.20;;
70077;Laerm;57448;51.490;5.436;2022-12-24T15:49:12;51.60;42.44;64.10;;
70077;Laerm;57448;51.490;5.436;2022-12-24T15:52:06;46.76;42.13;60.53;;
70077;Laerm;57448;51.490;5.436;2022-12-24T15:54:57;48.71;41.52;66.17;;
70077;Laerm;57448;51.490;5.436;2022-12-24T15:57:49;45.43;42.24;58.00;;
70077;Laerm;57448;51.490;5.436;2022-12-24T16:00:41;45.63;42.27;63.48;;
70077;Laerm;57448;51.490;5.436;2022-12-24T16:03:32;45.55;42.11;52.33;;
70077;Laerm;57448;51.490;5.436;2022-12-24T16:06:24;46.46;42.06;58.65;;
70077;Laerm;57448;51.490;5.436;2022-12-24T16:09:28;52.32;43.17;66.85;;
70077;Laerm;57448;51.490;5.436;2022-12-24T16:12:19;47.54;43.37;63.62;;
70077;Laerm;57448;51.490;5.436;2022-12-24T16:15:11;46.43;42.30;70.21;;
70077;Laerm;57448;51.490;5.436;2022-12-24T16:18:05;45.59;42.63;51.01;;
70077;Laerm;57448;51.490;5.436;2022-12-24T16:20:55;45.74;42.41;49.63;;
70077;Laerm;57448;51.490;5.436;2022-12-24T16:23:47;45.35;41.78;54.08;;
70077;Laerm;57448;51.490;5.436;2022-12-24T16:26:39;45.62;42.47;51.73;;
70077;Laerm;57448;51.490;5.436;2022-12-24T16:29:30;46.46;41.93;57.79;;